createdAt,value
2017-03-25T00:00:17.044Z,8.74
2017-03-25T00:02:40.190Z,8.92
2017-03-25T00:05:03.272Z,8.89
2017-03-25T00:07:26.428Z,8.96
2017-03-25T00:09:49.574Z,9.09
2017-03-25T00:12:12.711Z,8.92
2017-03-25T00:14:35.797Z,8.82
2017-03-25T00:16:58.898Z,8.84
2017-03-25T00:19:22.009Z,8.77
2017-03-25T00:21:45.085Z,8.71
2017-03-25T00:24:08.215Z,8.6
2017-03-25T00:26:31.286Z,8.63
2017-03-25T00:28:54.398Z,8.61
2017-03-25T00:31:17.477Z,8.74
2017-03-25T00:33:40.487Z,8.92
2017-03-25T00:36:03.577Z,8.89
2017-03-25T00:38:26.677Z,8.89
2017-03-25T00:40:49.818Z,8.63
2017-03-25T00:43:04.547Z,8.77
2017-03-25T00:45:27.637Z,8.75
2017-03-25T00:47:50.733Z,8.75
2017-03-25T00:50:13.842Z,8.92
2017-03-25T00:52:36.982Z,8.78
2017-03-25T00:55:00.042Z,8.89
2017-03-25T00:57:23.206Z,8.74
2017-03-25T00:59:46.296Z,8.72
2017-03-25T01:02:09.404Z,8.99
2017-03-25T01:04:32.539Z,8.86
2017-03-25T01:06:55.591Z,8.79
2017-03-25T01:09:18.707Z,8.75
2017-03-25T01:11:41.794Z,8.9
2017-03-25T01:13:43.373Z,8.84
2017-03-25T01:16:06.515Z,8.78
2017-03-25T01:18:21.171Z,8.87
2017-03-25T01:20:35.935Z,8.92
2017-03-25T01:22:12.502Z,8.93
2017-03-25T01:24:35.644Z,9.05
2017-03-25T01:26:58.739Z,9.08
2017-03-25T01:29:21.850Z,9.22
2017-03-25T01:31:44.973Z,9.3
2017-03-25T01:34:08.032Z,9.05
2017-03-25T01:36:31.112Z,8.77
2017-03-25T01:38:54.224Z,8.92
2017-03-25T01:41:17.310Z,8.92
2017-03-25T01:43:40.364Z,9.02
2017-03-25T01:46:03.496Z,9.24
2017-03-25T01:48:18.171Z,9.21
2017-03-25T01:50:41.307Z,9.08
2017-03-25T01:53:04.418Z,9.21
2017-03-25T01:55:27.549Z,9.02
2017-03-25T01:57:42.265Z,8.9
2017-03-25T02:00:05.380Z,8.99
2017-03-25T02:02:28.531Z,9
2017-03-25T02:04:38.544Z,8.99
2017-03-25T02:07:01.744Z,9.22
2017-03-25T02:09:24.865Z,9.24
2017-03-25T02:11:48.006Z,9.36
2017-03-25T02:14:11.136Z,9.08
2017-03-25T02:16:34.278Z,9.36
2017-03-25T02:18:24.339Z,9.19
2017-03-25T02:20:47.546Z,9.27
2017-03-25T02:23:10.612Z,9.31
2017-03-25T02:25:33.597Z,9.08
2017-03-25T02:27:56.630Z,8.95
2017-03-25T02:30:19.750Z,9.08
2017-03-25T02:32:42.877Z,8.89
2017-03-25T02:35:05.955Z,8.93
2017-03-25T02:37:29.074Z,9.08
2017-03-25T02:39:52.160Z,9.15
2017-03-25T02:42:15.244Z,9.05
2017-03-25T02:44:38.379Z,8.99
2017-03-25T02:47:01.454Z,9.21
2017-03-25T02:49:24.565Z,9.05
2017-03-25T02:51:47.660Z,9.03
2017-03-25T02:54:10.804Z,9
2017-03-25T02:56:33.919Z,8.95
2017-03-25T02:58:56.927Z,8.89
2017-03-25T03:01:20.029Z,8.95
2017-03-25T03:03:43.173Z,8.81
2017-03-25T03:06:06.227Z,8.89
2017-03-25T03:08:07.294Z,8.92
2017-03-25T03:10:30.438Z,8.96
2017-03-25T03:12:53.545Z,8.84
2017-03-25T03:15:16.659Z,8.97
2017-03-25T03:17:39.761Z,9.02
2017-03-25T03:20:02.853Z,8.87
2017-03-25T03:22:25.953Z,8.87
2017-03-25T03:24:49.050Z,8.72
2017-03-25T03:27:12.134Z,8.64
2017-03-25T03:29:35.219Z,9
2017-03-25T03:31:58.351Z,9.03
2017-03-25T03:34:13.088Z,8.82
2017-03-25T03:36:27.841Z,8.81
2017-03-25T03:38:50.968Z,8.92
2017-03-25T03:41:14.075Z,8.77
2017-03-25T03:43:37.190Z,8.71
2017-03-25T03:46:00.305Z,8.72
2017-03-25T03:48:15.079Z,8.74
2017-03-25T03:50:38.185Z,8.52
2017-03-25T03:53:01.247Z,8.59
2017-03-25T03:55:24.362Z,8.49
2017-03-25T03:57:47.478Z,8.5
2017-03-25T04:00:10.607Z,8.59
2017-03-25T04:02:33.749Z,8.54
2017-03-25T04:04:56.819Z,8.49
2017-03-25T04:07:19.945Z,8.54
2017-03-25T04:09:42.994Z,8.53
2017-03-25T04:12:06.073Z,8.5
2017-03-25T04:14:30.158Z,8.52
2017-03-25T04:16:53.259Z,8.64
2017-03-25T04:18:54.820Z,8.66
2017-03-25T04:21:17.963Z,8.64
2017-03-25T04:23:27.986Z,8.46
2017-03-25T04:25:42.733Z,8.74
2017-03-25T04:27:57.487Z,8.49
2017-03-25T04:30:12.204Z,8.57
2017-03-25T04:32:22.290Z,8.54
2017-03-25T04:34:45.417Z,8.42
2017-03-25T04:37:08.552Z,8.42
2017-03-25T04:39:31.662Z,8.61
2017-03-25T04:41:54.744Z,8.61
2017-03-25T04:44:17.877Z,8.54
2017-03-25T04:46:40.898Z,8.52
2017-03-25T04:49:03.926Z,8.57
2017-03-25T04:51:26.978Z,8.41
2017-03-25T04:53:50.079Z,8.68
2017-03-25T04:56:13.168Z,8.68
2017-03-25T04:58:36.174Z,8.61
2017-03-25T05:00:50.810Z,8.59
2017-03-25T05:03:13.867Z,8.35
2017-03-25T05:05:36.923Z,8.57
2017-03-25T05:08:00.044Z,8.61
2017-03-25T05:10:23.125Z,8.66
2017-03-25T05:12:46.205Z,8.6
2017-03-25T05:15:09.338Z,8.54
2017-03-25T05:17:32.434Z,8.46
2017-03-25T05:19:55.534Z,8.68
2017-03-25T05:22:18.657Z,8.61
2017-03-25T05:24:41.773Z,8.69
2017-03-25T05:27:04.867Z,8.61
2017-03-25T05:29:27.988Z,8.77
2017-03-25T05:31:51.090Z,8.68
2017-03-25T05:34:14.210Z,8.71
2017-03-25T05:36:37.304Z,8.53
2017-03-25T05:39:00.341Z,8.52
2017-03-25T05:41:23.440Z,8.74
2017-03-25T05:43:46.568Z,8.64
2017-03-25T05:46:09.607Z,8.5
2017-03-25T05:48:32.673Z,8.68
2017-03-25T05:50:55.687Z,8.87
2017-03-25T05:53:18.734Z,9.21
2017-03-25T05:55:41.804Z,9.08
2017-03-25T05:58:04.975Z,9.24
2017-03-25T06:00:28.075Z,9.3
2017-03-25T06:02:42.729Z,9.26
2017-03-25T06:05:05.855Z,9.69
2017-03-25T06:07:29.022Z,9.77
2017-03-25T06:09:52.179Z,10.21
2017-03-25T06:12:15.426Z,10.33
2017-03-25T06:14:38.640Z,10.51
2017-03-25T06:17:01.882Z,10.68
2017-03-25T06:19:25.244Z,10.87
2017-03-25T06:21:35.249Z,10.62
2017-03-25T06:23:50.180Z,11.12
2017-03-25T06:26:13.473Z,11.05
2017-03-25T06:28:36.757Z,10.39
2017-03-25T06:31:00.048Z,10.77
2017-03-25T06:33:23.332Z,11.62
2017-03-25T06:35:46.638Z,11.93
2017-03-25T06:38:09.943Z,11.13
2017-03-25T06:40:24.866Z,11.56
2017-03-25T06:42:39.798Z,12.08
2017-03-25T06:44:49.945Z,11.63
2017-03-25T06:47:13.344Z,11.93
2017-03-25T06:49:28.340Z,12.81
2017-03-25T06:51:51.730Z,13.36
2017-03-25T06:54:15.182Z,13.68
2017-03-25T06:56:38.693Z,14.18
2017-03-25T06:59:02.225Z,15.6
2017-03-25T07:01:17.431Z,17.2
2017-03-25T07:03:27.696Z,16.84
2017-03-25T07:05:29.402Z,18.09
2017-03-25T07:07:53.233Z,18.36
2017-03-25T07:10:17.094Z,18.08
2017-03-25T07:12:41.008Z,18.51
2017-03-25T07:15:04.994Z,19.67
2017-03-25T07:17:20.577Z,20.63
2017-03-25T07:19:44.638Z,21.66
2017-03-25T07:22:08.768Z,21.66
2017-03-25T07:24:33.035Z,22.46
2017-03-25T07:26:57.294Z,20.68
2017-03-25T07:29:13.171Z,19.84
2017-03-25T07:31:37.568Z,20.17
2017-03-25T07:34:01.897Z,22.71
2017-03-25T07:36:26.316Z,22.01
2017-03-25T07:38:50.757Z,21.59
2017-03-25T07:41:15.246Z,19.81
2017-03-25T07:43:39.701Z,22.22
2017-03-25T07:46:04.222Z,21.47
2017-03-25T07:48:20.288Z,23.14
2017-03-25T07:50:44.893Z,21.15
2017-03-25T07:53:09.475Z,21.59
2017-03-25T07:55:34.110Z,24.94
2017-03-25T07:57:58.805Z,23.84
2017-03-25T08:00:23.569Z,23.54
2017-03-25T08:02:48.361Z,23.96
2017-03-25T08:05:13.163Z,22.36
2017-03-25T08:07:37.964Z,20.78
2017-03-25T08:09:40.003Z,19.17
2017-03-25T08:12:04.876Z,19.39
2017-03-25T08:14:29.730Z,18.67
2017-03-25T08:16:54.514Z,17.38
2017-03-25T08:19:19.221Z,17.47
2017-03-25T08:21:43.793Z,16.66
2017-03-25T08:24:08.197Z,17.35
2017-03-25T08:26:32.516Z,17.47
2017-03-25T08:28:56.795Z,17.09
2017-03-25T08:31:20.893Z,15.73
2017-03-25T08:33:36.624Z,16.74
2017-03-25T08:36:00.665Z,16.46
2017-03-25T08:38:24.537Z,16.17
2017-03-25T08:40:48.457Z,15.81
2017-03-25T08:42:50.279Z,15.59
2017-03-25T08:45:14.233Z,15.66
2017-03-25T08:47:38.131Z,16.47
2017-03-25T08:50:01.981Z,15.81
2017-03-25T08:52:25.865Z,16.37
2017-03-25T08:54:49.731Z,16.83
2017-03-25T08:57:13.584Z,16.73
2017-03-25T08:59:37.434Z,16.43
2017-03-25T09:02:01.277Z,16.39
2017-03-25T09:04:16.688Z,16.47
2017-03-25T09:06:32.085Z,16.86
2017-03-25T09:08:55.913Z,15.75
2017-03-25T09:11:19.736Z,15.84
2017-03-25T09:13:43.535Z,16.34
2017-03-25T09:16:07.293Z,16.46
2017-03-25T09:20:07.298Z,16.5
2017-03-25T09:22:31.144Z,16.26
2017-03-25T09:24:46.519Z,16.08
2017-03-25T09:27:10.328Z,16.44
2017-03-25T09:29:34.124Z,15.91
2017-03-25T09:31:57.966Z,16.8
2017-03-25T09:34:21.683Z,16.69
2017-03-25T09:36:23.444Z,16.97
2017-03-25T09:38:47.272Z,17.47
2017-03-25T09:41:11.079Z,18.42
2017-03-25T09:43:35.047Z,18.03
2017-03-25T09:45:50.495Z,17.72
2017-03-25T09:47:52.263Z,17.17
2017-03-25T09:50:16.137Z,16.29
2017-03-25T09:52:26.394Z,16.89
2017-03-25T09:54:50.210Z,16.99
2017-03-25T09:57:14.071Z,17.17
2017-03-25T09:59:29.483Z,16.22
2017-03-25T10:01:53.298Z,16.84
2017-03-25T10:04:17.120Z,16.64
2017-03-25T10:06:32.503Z,15.65
2017-03-25T10:08:39.458Z,16.09
2017-03-25T10:11:03.245Z,16.5
2017-03-25T10:13:27.017Z,16.28
2017-03-25T10:15:50.821Z,16.49
2017-03-25T10:18:14.595Z,16.34
2017-03-25T10:20:38.387Z,16.76
2017-03-25T10:23:02.196Z,16.34
2017-03-25T10:25:25.986Z,15.8
2017-03-25T10:27:49.764Z,15.9
2017-03-25T10:30:13.524Z,16.5
2017-03-25T10:32:28.859Z,16.05
2017-03-25T10:34:52.643Z,16.44
2017-03-25T10:37:16.430Z,17.24
2017-03-25T10:39:40.195Z,16.65
2017-03-25T10:42:03.983Z,16.34
2017-03-25T10:44:27.748Z,16.69
2017-03-25T10:46:43.104Z,16.99
2017-03-25T10:49:06.864Z,16.89
2017-03-25T10:51:30.617Z,16.16
2017-03-25T10:53:54.381Z,16.08
2017-03-25T10:56:09.684Z,16.06
2017-03-25T10:58:33.429Z,16.43
2017-03-25T11:00:57.136Z,16.49
2017-03-25T11:03:20.874Z,16.32
2017-03-25T11:05:44.609Z,16.62
2017-03-25T11:07:59.906Z,16.97
2017-03-25T11:10:15.210Z,16.97
2017-03-25T11:12:38.954Z,16.95
2017-03-25T11:15:02.677Z,17.13
2017-03-25T11:17:03.936Z,16.77
2017-03-25T11:19:27.707Z,16.64
2017-03-25T11:21:51.446Z,17.23
2017-03-25T11:24:15.184Z,17.16
2017-03-25T11:26:38.854Z,17.1
2017-03-25T11:29:02.601Z,16.94
2017-03-25T11:31:17.922Z,17.14
2017-03-25T11:33:41.676Z,16.73
2017-03-25T11:35:51.963Z,16.82
2017-03-25T11:38:07.325Z,17.01
2017-03-25T11:40:31.067Z,17.01
2017-03-25T11:42:54.798Z,16.72
2017-03-25T11:45:18.561Z,17.04
2017-03-25T11:47:42.282Z,17.2
2017-03-25T11:50:06.018Z,16.76
2017-03-25T11:52:29.750Z,17.12
2017-03-25T11:54:45.076Z,17.2
2017-03-25T11:57:08.768Z,17.41
2017-03-25T11:59:10.031Z,17.35
2017-03-25T12:01:25.368Z,17.28
2017-03-25T12:03:49.123Z,17.38
2017-03-25T12:05:59.381Z,17.32
2017-03-25T12:08:01.113Z,16.8
2017-03-25T12:10:16.476Z,16.97
2017-03-25T12:12:40.223Z,17.01
2017-03-25T12:14:42.003Z,17.12
2017-03-25T12:16:57.339Z,17.1
2017-03-25T12:18:58.561Z,16.73
2017-03-25T12:21:22.307Z,16.91
2017-03-25T12:23:46.061Z,17.1
2017-03-25T12:26:09.796Z,17.16
2017-03-25T12:28:20.063Z,17.12
2017-03-25T12:30:43.843Z,17.1
2017-03-25T12:32:59.176Z,17.31
2017-03-25T12:35:14.505Z,16.95
2017-03-25T12:37:24.784Z,17.05
2017-03-25T12:39:48.579Z,17.12
2017-03-25T12:42:12.340Z,17.54
2017-03-25T12:44:14.095Z,17.6
2017-03-25T12:46:29.544Z,17.75
2017-03-25T12:48:44.918Z,17.68
2017-03-25T12:51:00.292Z,17.1
2017-03-25T12:53:15.671Z,17.28
2017-03-25T12:55:39.550Z,17.24
2017-03-25T12:58:03.297Z,17.59
2017-03-25T13:00:27.050Z,17.95
2017-03-25T13:02:50.781Z,17.46
2017-03-25T13:05:14.552Z,17.65
2017-03-25T13:07:38.304Z,17.44
2017-03-25T13:10:02.041Z,17.38
2017-03-25T13:12:03.791Z,17.16
2017-03-25T13:14:27.610Z,17.73
2017-03-25T13:16:51.393Z,18.23
2017-03-25T13:18:53.226Z,17.93
2017-03-25T13:21:08.562Z,17.59
2017-03-25T13:23:32.329Z,18.05
2017-03-25T13:25:56.117Z,17.79
2017-03-25T13:27:57.389Z,17.68
2017-03-25T13:30:12.768Z,17.78
2017-03-25T13:32:36.546Z,17.68
2017-03-25T13:35:00.287Z,17.9
2017-03-25T13:37:24.051Z,18.06
2017-03-25T13:39:34.337Z,18
2017-03-25T13:41:49.724Z,18.06
2017-03-25T13:44:13.505Z,17.82
2017-03-25T13:46:37.279Z,18.28
2017-03-25T13:49:01.048Z,18.12
2017-03-25T13:51:24.836Z,17.73
2017-03-25T13:53:48.644Z,18.3
2017-03-25T13:56:12.521Z,18.16
2017-03-25T13:58:36.401Z,17.94
2017-03-25T14:01:00.278Z,18.18
2017-03-25T14:03:01.543Z,18.06
2017-03-25T14:05:25.398Z,18
2017-03-25T14:07:49.283Z,18.02
2017-03-25T14:09:50.545Z,17.93
2017-03-25T14:12:14.400Z,17.93
2017-03-25T14:14:38.133Z,18.12
2017-03-25T14:17:01.969Z,18.18
2017-03-25T14:19:17.331Z,17.95
2017-03-25T14:21:41.202Z,18.15
2017-03-25T14:24:05.081Z,18.46
2017-03-25T14:26:14.869Z,18.12
2017-03-25T14:28:38.707Z,18.19
2017-03-25T14:31:02.585Z,18.24
2017-03-25T14:33:26.455Z,18.18
2017-03-25T14:35:50.339Z,18.11
2017-03-25T14:38:14.212Z,18.09
2017-03-25T14:40:38.091Z,18.09
2017-03-25T14:43:01.966Z,17.88
2017-03-25T14:45:11.760Z,18.02
2017-03-25T14:47:21.523Z,17.97
2017-03-25T14:49:31.305Z,18.09
2017-03-25T14:51:55.206Z,18.16
2017-03-25T14:54:18.960Z,18.09
2017-03-25T14:56:42.843Z,18.12
2017-03-25T14:59:06.711Z,18.06
2017-03-25T15:01:30.590Z,17.94
2017-03-25T15:03:54.467Z,17.94
2017-03-25T15:06:18.368Z,18.18
2017-03-25T15:08:42.228Z,18.24
2017-03-25T15:10:18.103Z,18
2017-03-25T15:12:10.911Z,18.12
2017-03-25T15:14:34.797Z,17.94
2017-03-25T15:16:58.677Z,17.95
2017-03-25T15:19:22.550Z,17.87
2017-03-25T15:21:46.334Z,17.97
2017-03-25T15:23:39.640Z,17.86
2017-03-25T15:26:03.460Z,17.94
2017-03-25T15:28:27.345Z,17.94
2017-03-25T15:30:42.705Z,17.95
2017-03-25T15:32:58.200Z,17.86
2017-03-25T15:35:21.974Z,18.03
2017-03-25T15:37:23.723Z,17.82
2017-03-25T15:39:47.606Z,18.09
2017-03-25T15:42:11.485Z,17.82
2017-03-25T15:44:26.865Z,18.06
2017-03-25T15:46:50.637Z,18.02
2017-03-25T15:48:52.396Z,17.78
2017-03-25T15:51:16.271Z,17.79
2017-03-25T15:53:40.149Z,17.93
2017-03-25T15:55:55.527Z,17.94
2017-03-25T15:58:10.906Z,17.78
2017-03-25T16:00:34.679Z,17.93
2017-03-25T16:02:58.571Z,17.95
2017-03-25T16:05:22.440Z,18.05
2017-03-25T16:07:32.748Z,17.87
2017-03-25T16:09:56.589Z,17.93
2017-03-25T16:12:20.353Z,17.97
2017-03-25T16:14:44.446Z,17.71
2017-03-25T16:17:08.305Z,17.78
2017-03-25T16:19:32.178Z,17.94
2017-03-25T16:21:56.059Z,18
2017-03-25T16:24:11.434Z,18.11
2017-03-25T16:26:26.811Z,18.11
2017-03-25T16:28:29.043Z,18.18
2017-03-25T16:30:54.819Z,18.05
2017-03-25T16:33:25.446Z,17.95
2017-03-25T16:35:50.455Z,17.78
2017-03-25T16:38:16.010Z,17.6
2017-03-25T16:40:39.883Z,17.72
2017-03-25T16:42:55.558Z,17.71
2017-03-25T16:45:19.429Z,17.93
2017-03-25T16:47:44.198Z,17.91
2017-03-25T16:52:36.068Z,17.93
2017-03-25T16:55:00.178Z,17.87
2017-03-25T16:57:24.249Z,17.71
2017-03-25T16:59:48.031Z,17.69
2017-03-25T17:02:13.125Z,17.66
2017-03-25T17:04:39.869Z,17.68
2017-03-25T17:07:03.929Z,17.57
2017-03-25T17:09:27.727Z,17.8
2017-03-25T17:11:52.559Z,17.75
2017-03-25T17:14:16.509Z,17.69
2017-03-25T17:16:48.043Z,17.47
2017-03-25T17:19:13.771Z,17.32
2017-03-25T17:21:38.577Z,17.23
2017-03-25T17:24:03.263Z,17.17
2017-03-25T17:26:27.917Z,17.14
2017-03-25T17:28:52.989Z,17.17
2017-03-25T17:31:17.782Z,17.19
2017-03-25T17:33:41.552Z,17.09
2017-03-25T17:36:05.433Z,17.02
2017-03-25T17:38:29.557Z,16.94
2017-03-25T17:41:01.985Z,17.05
2017-03-25T17:43:25.794Z,17.04
2017-03-25T17:45:49.638Z,16.95
2017-03-25T17:48:14.438Z,16.87
2017-03-25T17:52:14.602Z,16.92
2017-03-25T17:54:38.372Z,16.86
2017-03-25T17:57:02.514Z,16.51
2017-03-25T17:59:27.240Z,16.62
2017-03-25T18:01:51.952Z,16.65
2017-03-25T18:04:16.542Z,16.54
2017-03-25T18:06:40.623Z,16.44
2017-03-25T18:09:04.596Z,16.41
2017-03-25T18:11:28.244Z,16.47
2017-03-25T18:13:51.940Z,16.44
2017-03-25T18:16:15.593Z,16.24
2017-03-25T18:18:16.837Z,16.31
2017-03-25T18:20:40.587Z,16.22
2017-03-25T18:23:04.261Z,16.24
2017-03-25T18:25:19.560Z,16.21
2017-03-25T18:27:43.356Z,16.05
2017-03-25T18:30:14.053Z,16.03
2017-03-25T18:32:37.664Z,16.25
2017-03-25T18:35:01.247Z,16.09
2017-03-25T18:37:24.832Z,15.75
2017-03-25T18:39:48.349Z,15.72
2017-03-25T18:42:01.172Z,15.75
2017-03-25T18:44:24.901Z,15.66
2017-03-25T18:46:48.498Z,15.54
2017-03-25T18:49:12.245Z,15.54
2017-03-25T18:51:35.861Z,15.52
2017-03-25T18:53:59.408Z,15.51
2017-03-25T18:56:23.111Z,15.43
2017-03-25T18:58:46.706Z,15.59
2017-03-25T19:01:11.256Z,15.39
2017-03-25T19:03:34.814Z,15.37
2017-03-25T19:05:58.493Z,15.29
2017-03-25T19:08:22.205Z,15.29
2017-03-25T19:10:45.770Z,15.22
2017-03-25T19:13:09.292Z,15.19
2017-03-25T19:15:32.862Z,15.18
2017-03-25T19:17:34.633Z,15.36
2017-03-25T19:19:58.498Z,15.43
2017-03-25T19:22:22.064Z,15.33
2017-03-25T19:24:45.653Z,15.25
2017-03-25T19:27:11.274Z,15.15
2017-03-25T19:29:34.863Z,15.1
2017-03-25T19:31:58.419Z,14.79
2017-03-25T19:34:13.498Z,14.9
2017-03-25T19:36:38.466Z,14.77
2017-03-25T19:39:02.058Z,14.58
2017-03-25T19:41:25.623Z,14.58
2017-03-25T19:43:49.222Z,14.41
2017-03-25T19:46:13.164Z,14.44
2017-03-25T19:48:40.212Z,14.44
2017-03-25T19:51:07.287Z,14.37
2017-03-25T19:53:35.010Z,14.25
2017-03-25T19:55:59.638Z,14.2
2017-03-25T19:58:15.090Z,14.12
2017-03-25T20:00:59.570Z,14.19
2017-03-25T20:03:15.843Z,14.01
2017-03-25T20:05:39.326Z,14.15
2017-03-25T20:08:03.749Z,14.2
2017-03-25T20:10:35.294Z,14.25
2017-03-25T20:12:59.108Z,14.34
2017-03-25T20:15:22.657Z,14.26
2017-03-25T20:17:53.383Z,14.13
2017-03-25T20:20:16.964Z,14.12
2017-03-25T20:22:40.491Z,14.23
2017-03-25T20:25:04.183Z,14.18
2017-03-25T20:27:29.710Z,14.18
2017-03-25T20:29:56.049Z,13.98
2017-03-25T20:32:19.617Z,13.94
2017-03-25T20:34:43.457Z,13.98
2017-03-25T20:37:07.075Z,14.04
2017-03-25T20:39:30.720Z,13.8
2017-03-25T20:41:54.197Z,13.68
2017-03-25T20:44:17.858Z,13.78
2017-03-25T20:46:41.550Z,13.82
2017-03-25T20:49:05.011Z,13.65
2017-03-25T20:51:32.183Z,13.78
2017-03-25T20:53:54.113Z,13.76
2017-03-25T20:56:17.561Z,13.67
2017-03-25T20:58:41.050Z,13.78
2017-03-25T21:01:04.476Z,13.64
2017-03-25T21:03:28.144Z,13.67
2017-03-25T21:05:51.547Z,13.52
2017-03-25T21:08:17.468Z,13.45
2017-03-25T21:10:31.083Z,13.28
2017-03-25T21:12:54.576Z,13.43
2017-03-25T21:15:18.024Z,13.36
2017-03-25T21:17:41.504Z,13.16
2017-03-25T21:20:04.958Z,13.31
2017-03-25T21:21:40.718Z,13.3
2017-03-25T21:24:04.266Z,12.99
2017-03-25T21:26:27.736Z,13.13
2017-03-25T21:28:51.203Z,13.03
2017-03-25T21:31:14.670Z,12.84
2017-03-25T21:33:38.137Z,12.87
2017-03-25T21:36:01.545Z,12.95
2017-03-25T21:38:24.970Z,12.95
2017-03-25T21:40:48.336Z,12.98
2017-03-25T21:43:04.341Z,12.95
2017-03-25T21:45:27.797Z,12.91
2017-03-25T21:47:51.260Z,12.94
2017-03-25T21:50:14.738Z,12.83
2017-03-25T21:52:38.201Z,12.95
2017-03-25T21:55:01.666Z,12.94
2017-03-25T21:57:25.137Z,12.7
2017-03-25T21:59:48.598Z,12.76
2017-03-25T22:01:49.868Z,12.73
2017-03-25T22:04:13.315Z,12.69
2017-03-25T22:06:36.785Z,12.7
2017-03-25T22:09:00.248Z,12.57
2017-03-25T22:11:23.717Z,12.68
2017-03-25T22:13:47.183Z,12.61
2017-03-25T22:16:10.650Z,12.83
2017-03-25T22:18:11.825Z,12.83
2017-03-25T22:20:35.261Z,12.91
2017-03-25T22:22:50.336Z,12.7
2017-03-25T22:25:13.804Z,12.68
2017-03-25T22:27:23.500Z,12.51
2017-03-25T22:28:59.252Z,12.39
2017-03-25T22:31:22.656Z,12.5
2017-03-25T22:33:37.624Z,12.53
2017-03-25T22:36:01.093Z,12.61
2017-03-25T22:38:16.165Z,12.26
2017-03-25T22:40:31.129Z,12.29
2017-03-25T22:42:32.298Z,12.3
2017-03-25T22:44:55.739Z,12.14
2017-03-25T22:47:19.108Z,12.26
2017-03-25T22:49:42.575Z,12.11
2017-03-25T22:52:05.942Z,12.08
2017-03-25T22:54:29.409Z,11.91
2017-03-25T22:56:52.779Z,11.86
2017-03-25T22:59:16.151Z,11.96
2017-03-25T23:01:39.501Z,11.78
2017-03-25T23:04:02.868Z,11.59
2017-03-25T23:06:26.231Z,11.71
2017-03-25T23:08:49.596Z,11.85
2017-03-25T23:11:13.002Z,11.65
2017-03-25T23:13:36.365Z,11.53
2017-03-25T23:15:37.469Z,11.59
2017-03-25T23:18:00.834Z,11.55
2017-03-25T23:20:24.213Z,11.65
2017-03-25T23:21:59.967Z,11.65
2017-03-25T23:24:23.419Z,11.59
2017-03-25T23:26:46.781Z,11.59
2017-03-25T23:29:01.750Z,11.71
2017-03-25T23:31:03.382Z,11.7
2017-03-25T23:33:26.772Z,11.59
2017-03-25T23:35:50.134Z,11.49
2017-03-25T23:38:13.522Z,11.4
2017-03-25T23:40:36.771Z,11.52
2017-03-25T23:43:00.178Z,11.48
2017-03-25T23:45:23.392Z,11.34
2017-03-25T23:47:46.768Z,11.37
2017-03-25T23:50:10.125Z,11.26
2017-03-25T23:52:33.510Z,11.27
2017-03-25T23:54:57.776Z,11.26
2017-03-25T23:57:21.136Z,11.37
2017-03-25T23:59:44.506Z,11.33
